createdAt,value
2018-05-18T00:02:00.750Z,6.20
2018-05-18T00:06:04.034Z,6.60
2018-05-18T00:10:06.595Z,6.40
2018-05-18T00:14:09.235Z,6.97
2018-05-18T00:18:12.131Z,6.73
2018-05-18T00:22:14.659Z,7.20
2018-05-18T00:26:17.235Z,7.27
2018-05-18T00:30:19.816Z,8.00
2018-05-18T00:34:22.827Z,7.20
2018-05-18T00:38:26.139Z,7.83
2018-05-18T00:42:34.184Z,7.37
2018-05-18T00:46:37.475Z,7.77
2018-05-18T00:50:40.035Z,7.30
2018-05-18T00:54:42.567Z,7.90
2018-05-18T00:58:45.118Z,7.50
2018-05-18T01:02:48.420Z,8.07
2018-05-18T01:06:50.994Z,8.27
2018-05-18T01:10:54.348Z,9.03
2018-05-18T01:14:56.900Z,9.70
2018-05-18T01:19:00.199Z,8.47
2018-05-18T01:23:03.523Z,8.40
2018-05-18T01:27:06.828Z,7.77
2018-05-18T01:31:10.159Z,7.70
2018-05-18T01:35:13.471Z,9.60
2018-05-18T01:39:16.142Z,8.83
2018-05-18T01:43:18.703Z,9.83
2018-05-18T01:47:22.061Z,9.37
2018-05-18T01:51:24.602Z,9.30
2018-05-18T01:55:27.255Z,9.53
2018-05-18T01:59:29.788Z,9.37
2018-05-18T02:03:32.658Z,9.80
2018-05-18T02:07:35.961Z,9.37
2018-05-18T02:11:38.535Z,9.40
2018-05-18T02:15:41.063Z,9.33
2018-05-18T02:19:43.628Z,9.23
2018-05-18T02:23:46.156Z,10.07
2018-05-18T02:27:48.847Z,10.23
2018-05-18T02:31:51.395Z,10.07
2018-05-18T02:35:54.055Z,10.37
2018-05-18T02:39:56.601Z,10.57
2018-05-18T02:43:59.173Z,10.77
2018-05-18T02:48:01.715Z,9.43
2018-05-18T02:52:04.299Z,10.93
2018-05-18T02:56:06.840Z,11.07
2018-05-18T03:00:09.410Z,10.43
2018-05-18T03:04:11.947Z,10.70
2018-05-18T03:08:14.507Z,10.40
2018-05-18T03:12:17.031Z,11.90
2018-05-18T03:16:19.591Z,11.33
2018-05-18T03:20:22.927Z,12.47
2018-05-18T03:24:25.488Z,11.67
2018-05-18T03:28:34.086Z,11.80
2018-05-18T03:32:36.743Z,11.27
2018-05-18T03:36:39.275Z,11.87
2018-05-18T03:40:42.599Z,11.43
2018-05-18T03:44:45.127Z,13.00
2018-05-18T03:48:47.707Z,11.70
2018-05-18T03:52:52.947Z,13.77
2018-05-18T03:56:55.506Z,10.93
2018-05-18T04:00:58.055Z,11.33
2018-05-18T04:05:12.573Z,12.17
2018-05-18T04:09:15.119Z,13.40
2018-05-18T04:13:17.731Z,12.93
2018-05-18T04:17:20.253Z,11.17
2018-05-18T04:21:24.780Z,12.00
2018-05-18T04:25:27.327Z,12.47
2018-05-18T04:29:29.905Z,13.43
2018-05-18T04:38:01.544Z,13.20
2018-05-18T04:42:14.577Z,13.07
2018-05-18T04:46:17.139Z,13.47
2018-05-18T04:50:19.675Z,11.50
2018-05-18T04:54:22.638Z,12.13
2018-05-18T04:58:25.146Z,12.90
2018-05-18T05:02:31.671Z,13.93
2018-05-18T05:06:34.214Z,14.00
2018-05-18T05:10:36.775Z,13.47
2018-05-18T05:14:50.590Z,16.87
2018-05-18T05:18:53.251Z,19.30
2018-05-18T05:22:55.786Z,21.17
2018-05-18T05:26:59.123Z,20.17
2018-05-18T05:31:01.722Z,20.73
2018-05-18T05:35:15.414Z,23.07
2018-05-18T05:39:18.771Z,20.87
2018-05-18T05:43:21.359Z,27.70
2018-05-18T05:47:23.884Z,28.47
2018-05-18T05:51:26.507Z,29.40
2018-05-18T05:55:29.042Z,27.57
2018-05-18T05:59:31.710Z,30.03
2018-05-18T06:03:34.250Z,28.03
2018-05-18T06:07:37.130Z,29.67
2018-05-18T06:11:39.667Z,27.50
2018-05-18T06:15:42.667Z,28.33
2018-05-18T06:19:49.023Z,23.80
2018-05-18T06:23:51.579Z,25.33
2018-05-18T06:27:54.895Z,25.70
2018-05-18T06:32:18.311Z,25.73
2018-05-18T06:36:20.842Z,28.50
2018-05-18T06:40:25.548Z,28.97
2018-05-18T06:44:28.846Z,28.83
2018-05-18T06:48:31.409Z,27.80
2018-05-18T06:52:41.107Z,26.00
2018-05-18T06:56:43.656Z,27.27
2018-05-18T07:00:46.946Z,29.37
2018-05-18T07:04:57.538Z,28.23
2018-05-18T07:09:00.059Z,30.10
2018-05-18T07:13:02.990Z,32.63
2018-05-18T07:17:06.299Z,30.93
2018-05-18T07:21:09.319Z,29.33
2018-05-18T07:25:11.854Z,28.33
2018-05-18T07:29:14.526Z,27.60
2018-05-18T07:33:17.979Z,32.27
2018-05-18T07:37:21.306Z,30.37
2018-05-18T07:41:24.835Z,34.53
2018-05-18T07:45:30.220Z,28.47
2018-05-18T07:49:32.744Z,34.13
2018-05-18T07:53:35.340Z,36.47
2018-05-18T07:57:38.610Z,34.90
2018-05-18T08:01:41.166Z,36.53
2018-05-18T08:05:43.700Z,34.40
2018-05-18T08:09:46.243Z,34.40
2018-05-18T08:13:51.494Z,32.87
2018-05-18T08:17:54.067Z,33.33
2018-05-18T08:21:56.671Z,36.70
2018-05-18T08:26:00.042Z,37.10
2018-05-18T08:30:02.575Z,38.33
2018-05-18T08:34:05.899Z,36.90
2018-05-18T08:42:37.738Z,38.50
2018-05-18T08:46:50.094Z,45.87
2018-05-18T08:50:52.647Z,41.67
2018-05-18T08:54:55.176Z,44.20
2018-05-18T08:58:58.510Z,45.83
2018-05-18T09:03:01.804Z,47.43
2018-05-18T09:07:04.386Z,48.27
2018-05-18T09:11:14.042Z,45.97
2018-05-18T09:15:16.603Z,47.60
2018-05-18T09:19:36.624Z,49.73
2018-05-18T09:23:40.047Z,47.50
2018-05-18T09:27:44.367Z,46.80
2018-05-18T09:31:47.015Z,44.47
2018-05-18T09:35:50.336Z,43.97
2018-05-18T09:39:53.655Z,42.97
2018-05-18T09:44:01.552Z,42.47
2018-05-18T09:48:06.136Z,45.70
2018-05-18T09:56:44.434Z,41.30
2018-05-18T10:00:49.696Z,41.63
2018-05-18T10:04:52.251Z,40.20
2018-05-18T10:08:56.735Z,40.40
2018-05-18T10:13:05.807Z,41.10
2018-05-18T10:17:09.111Z,41.57
2018-05-18T10:21:11.750Z,41.17
2018-05-18T10:25:14.303Z,42.83
2018-05-18T10:29:16.859Z,40.97
2018-05-18T10:33:20.160Z,41.20
2018-05-18T10:37:33.046Z,40.23
2018-05-18T10:41:35.590Z,39.17
2018-05-18T10:45:42.335Z,43.73
2018-05-18T10:49:45.636Z,44.23
2018-05-18T10:53:48.191Z,41.20
2018-05-18T10:57:54.144Z,43.30
2018-05-18T11:01:56.814Z,40.13
2018-05-18T11:05:59.342Z,41.77
2018-05-18T11:10:02.222Z,37.87
2018-05-18T11:14:04.776Z,39.67
2018-05-18T11:18:07.324Z,39.27
2018-05-18T11:22:09.859Z,33.17
2018-05-18T11:26:12.510Z,32.23
2018-05-18T11:30:15.007Z,32.53
2018-05-18T11:34:18.329Z,29.30
2018-05-18T11:38:21.626Z,28.27
2018-05-18T11:42:24.280Z,29.03
2018-05-18T11:46:26.855Z,27.53
2018-05-18T11:50:29.407Z,27.23
2018-05-18T11:54:31.940Z,27.30
2018-05-18T11:58:37.950Z,30.30
2018-05-18T12:02:40.475Z,32.60
2018-05-18T12:06:43.878Z,31.30
2018-05-18T12:10:46.399Z,32.80
2018-05-18T12:14:49.724Z,32.73
2018-05-18T12:18:53.020Z,33.63
2018-05-18T12:22:55.570Z,34.73
2018-05-18T12:27:04.380Z,33.80
2018-05-18T12:31:07.033Z,30.90
2018-05-18T12:35:09.562Z,34.17
2018-05-18T12:39:37.642Z,32.13
2018-05-18T12:43:40.170Z,29.03
2018-05-18T12:47:42.834Z,31.60
2018-05-18T12:51:45.427Z,29.33
2018-05-18T12:55:47.986Z,30.50
2018-05-18T12:59:50.544Z,30.27
2018-05-18T13:03:53.107Z,30.00
2018-05-18T13:07:55.634Z,30.30
2018-05-18T13:11:58.283Z,31.73
2018-05-18T13:16:01.663Z,30.60
2018-05-18T13:20:21.563Z,31.60
2018-05-18T13:24:24.094Z,29.47
2018-05-18T13:28:26.654Z,28.47
2018-05-18T13:32:37.452Z,30.23
2018-05-18T13:36:41.974Z,30.63
2018-05-18T13:45:14.413Z,31.03
2018-05-18T13:54:03.958Z,29.40
2018-05-18T13:58:06.583Z,31.17
2018-05-18T14:02:11.192Z,30.13
2018-05-18T14:06:20.350Z,29.53
2018-05-18T14:10:23.843Z,30.40
2018-05-18T14:14:26.427Z,32.77
2018-05-18T14:18:28.989Z,30.10
2018-05-18T14:22:31.514Z,29.03
2018-05-18T14:26:34.068Z,29.20
2018-05-18T14:30:43.974Z,26.67
2018-05-18T14:34:46.534Z,24.93
2018-05-18T14:38:49.201Z,22.27
2018-05-18T14:42:59.532Z,23.70
2018-05-18T14:47:02.830Z,21.27
2018-05-18T14:51:05.563Z,20.97
2018-05-18T14:55:08.146Z,19.13
2018-05-18T14:59:10.715Z,18.43
2018-05-18T15:03:14.383Z,17.47
2018-05-18T15:07:17.060Z,17.07
2018-05-18T15:11:19.612Z,17.27
2018-05-18T15:15:22.267Z,15.90
2018-05-18T15:19:24.796Z,15.00
2018-05-18T15:23:35.918Z,14.03
2018-05-18T15:27:39.450Z,15.27
2018-05-18T15:31:42.006Z,15.73
2018-05-18T15:36:04.585Z,15.53
2018-05-18T15:40:08.006Z,15.03
2018-05-18T15:44:22.999Z,15.80
2018-05-18T15:48:26.412Z,14.50
2018-05-18T15:52:29.743Z,13.70
2018-05-18T15:56:33.092Z,15.00
2018-05-18T16:00:36.521Z,14.50
2018-05-18T16:04:47.614Z,14.83
2018-05-18T16:08:51.912Z,13.67
2018-05-18T16:12:59.091Z,13.93
2018-05-18T16:17:02.477Z,14.70
2018-05-18T16:21:05.181Z,14.37
2018-05-18T16:25:07.691Z,14.80
2018-05-18T16:29:10.244Z,13.07
2018-05-18T16:33:14.788Z,14.47
2018-05-18T16:37:22.068Z,13.40
2018-05-18T16:41:24.611Z,13.17
2018-05-18T16:45:28.114Z,13.43
2018-05-18T16:49:31.415Z,13.10
2018-05-18T16:53:33.970Z,12.90
2018-05-18T16:57:36.519Z,13.23
2018-05-18T17:01:42.743Z,12.53
2018-05-18T17:05:46.035Z,11.07
2018-05-18T17:09:54.918Z,9.80
2018-05-18T17:13:58.231Z,9.80
2018-05-18T17:18:00.806Z,8.70
2018-05-18T17:22:08.168Z,11.67
2018-05-18T17:26:11.488Z,11.00
2018-05-18T17:30:16.727Z,11.37
2018-05-18T17:34:21.215Z,10.40
2018-05-18T17:38:24.512Z,10.33
2018-05-18T17:42:27.070Z,10.27
2018-05-18T17:46:29.596Z,9.27
2018-05-18T17:50:32.147Z,9.80
2018-05-18T17:54:35.450Z,8.77
2018-05-18T17:58:38.011Z,8.53
2018-05-18T18:02:41.463Z,8.73
2018-05-18T18:06:44.023Z,8.83
2018-05-18T18:10:47.319Z,8.23
2018-05-18T18:14:49.866Z,8.13
2018-05-18T18:18:52.390Z,7.47
2018-05-18T18:22:55.885Z,7.43
2018-05-18T18:26:59.179Z,8.00
2018-05-18T18:31:12.444Z,7.17
2018-05-18T18:35:15.755Z,7.00
2018-05-18T18:39:18.313Z,7.03
2018-05-18T18:43:21.819Z,7.10
2018-05-18T18:47:25.151Z,7.73
2018-05-18T18:51:28.622Z,8.97
2018-05-18T18:55:31.234Z,7.10
2018-05-18T18:59:33.760Z,7.03
2018-05-18T19:03:36.310Z,7.00
2018-05-18T19:07:38.834Z,7.20
2018-05-18T19:11:41.479Z,6.83
2018-05-18T19:15:44.002Z,6.60
2018-05-18T19:19:47.313Z,7.13
2018-05-18T19:23:49.844Z,7.27
2018-05-18T19:27:52.403Z,7.07
2018-05-18T19:31:56.948Z,6.13
2018-05-18T19:35:59.607Z,6.80
2018-05-18T19:40:04.108Z,6.70
2018-05-18T19:44:06.675Z,7.00
2018-05-18T19:48:09.198Z,6.53
2018-05-18T19:52:22.199Z,6.63
2018-05-18T19:56:28.478Z,6.43
2018-05-18T20:00:31.026Z,7.17
2018-05-18T20:04:34.612Z,6.97
2018-05-18T20:08:44.314Z,9.33
2018-05-18T20:13:01.971Z,6.30
2018-05-18T20:17:12.320Z,6.67
2018-05-18T20:21:14.843Z,7.20
2018-05-18T20:25:17.447Z,6.93
2018-05-18T20:29:19.977Z,6.97
2018-05-18T20:33:24.301Z,6.43
2018-05-18T20:37:32.678Z,7.43
2018-05-18T20:41:49.039Z,8.50
2018-05-18T20:45:58.926Z,7.10
2018-05-18T20:50:01.477Z,7.33
2018-05-18T20:54:13.701Z,6.67
2018-05-18T20:58:22.007Z,7.30
2018-05-18T21:02:25.542Z,7.50
2018-05-18T21:06:28.602Z,7.37
2018-05-18T21:10:31.993Z,6.60
2018-05-18T21:14:47.136Z,6.97
2018-05-18T21:18:50.439Z,7.53
2018-05-18T21:22:53.806Z,7.10
2018-05-18T21:31:24.077Z,7.93
2018-05-18T21:35:26.626Z,7.83
2018-05-18T21:39:29.964Z,7.03
2018-05-18T21:43:37.379Z,6.33
2018-05-18T21:47:39.944Z,7.70
2018-05-18T21:51:42.494Z,7.23
2018-05-18T21:55:45.103Z,10.87
2018-05-18T21:59:47.677Z,9.33
2018-05-18T22:03:50.667Z,7.70
2018-05-18T22:08:13.831Z,7.90
2018-05-18T22:12:16.564Z,6.97
2018-05-18T22:16:25.983Z,7.50
2018-05-18T22:20:30.894Z,7.30
2018-05-18T22:24:33.432Z,7.37
2018-05-18T22:28:35.999Z,7.13
2018-05-18T22:32:38.524Z,7.03
2018-05-18T22:36:41.083Z,7.07
2018-05-18T22:41:08.838Z,7.67
2018-05-18T22:45:11.386Z,5.77
2018-05-18T22:49:24.598Z,6.73
2018-05-18T22:53:27.998Z,8.23
2018-05-18T22:57:30.510Z,8.97
2018-05-18T23:01:38.378Z,7.20
2018-05-18T23:05:40.902Z,9.43
2018-05-18T23:09:43.451Z,9.67
2018-05-18T23:13:45.974Z,11.10
2018-05-18T23:17:49.298Z,11.33
2018-05-18T23:21:51.843Z,10.80
2018-05-18T23:26:15.494Z,9.83
2018-05-18T23:30:18.786Z,8.80
2018-05-18T23:34:21.332Z,8.07
2018-05-18T23:38:38.015Z,6.97
2018-05-18T23:42:51.275Z,7.30
2018-05-18T23:46:54.799Z,8.27
2018-05-18T23:50:57.378Z,7.00
2018-05-18T23:54:59.900Z,7.13
2018-05-18T23:59:02.452Z,6.60
